Kezdőlap
METAR-TAF:

METAR-TAF

Repülőterek :

Csungking, Kína

földrajzi szélesség: 29-31N, földrajzi hosszúság: 106-29E, magasság: 351 m

Jelenlegi meteorológiai megfigyelések

A jelentés 39 perccel ezelõtt készült, 02:00 UTC
Különbözõ irányokból fújó szél 2 kt
Hőmérséklet 8°C
Páratartalom 76%
Légköri nyomás 1023 hPa
Látótávolság: 3500 m
Párásság

METAR: ZUCK 230200Z VRB01MPS 3500 BR NSC 08/04 Q1023 NOSIG

Idő: 10:39 (02:39 UTC)

Előrejelzés

A jelentés 7 órával és 35 perccel ezelõtt készült, 19:04 UTC
Az előrejelzés 23-én 00 óra UTC és 23-én 24 óra UTC között érvényes
Észak-északkeleti szél 6 kt
Látótávolság: 3500 m
Szórványos felhőzet 4000 lábon
Párásság

TAF: ZUCK 221904Z 2300/2324 02003MPS 3500 BR SCT040 TX12/2308Z TN06/2322Z

Meteorológiai megfigyelések és előrejelzések több, mint 4000 repülőtéren (METAR és TAF jelentéseket).

A térképen piros és sárga pontok jelzik az elérhető meteorológiai állomásokat.

Mozgassa az egeret a pont fölött, hogy megjelenjen az állomás neve.

Azután kattintson az időjárási megfigyelések és előrejelzések megtekintéséhez.

A térkép megváltoztatása: kattintson a fekete keresztel jelölt zöld gombra ráközelítéshez, a vonallal jelölt zöld gombra távolításhoz, vagy a zöld nyilakra a szomszédos térképek eléréséhez.


METAR-TAF: